sensor_id;sensor_type;location;lat;lon;timestamp;P1;durP1;ratioP1;P2;durP2;ratioP2
48777;SDS011;34578;0.000;0.000;2023-11-19T00:04:59;4.40;;;2.55;;
48777;SDS011;34578;0.000;0.000;2023-11-19T00:10:00;5.83;;;3.07;;
48777;SDS011;34578;0.000;0.000;2023-11-19T00:15:10;8.32;;;3.10;;
48777;SDS011;34578;0.000;0.000;2023-11-19T00:20:12;5.40;;;3.25;;
48777;SDS011;34578;0.000;0.000;2023-11-19T00:25:13;6.13;;;2.97;;
48777;SDS011;34578;0.000;0.000;2023-11-19T00:30:14;10.63;;;3.55;;
48777;SDS011;34578;0.000;0.000;2023-11-19T00:35:15;6.93;;;3.15;;
48777;SDS011;34578;0.000;0.000;2023-11-19T00:40:15;4.35;;;2.97;;
48777;SDS011;34578;0.000;0.000;2023-11-19T00:45:18;7.50;;;3.20;;
48777;SDS011;34578;0.000;0.000;2023-11-19T00:50:18;8.38;;;4.10;;
48777;SDS011;34578;0.000;0.000;2023-11-19T00:55:20;6.03;;;2.83;;
48777;SDS011;34578;0.000;0.000;2023-11-19T01:00:21;7.55;;;4.53;;
48777;SDS011;34578;0.000;0.000;2023-11-19T01:05:24;6.57;;;3.40;;
48777;SDS011;34578;0.000;0.000;2023-11-19T01:10:25;5.25;;;2.72;;
48777;SDS011;34578;0.000;0.000;2023-11-19T01:15:26;7.40;;;3.95;;
48777;SDS011;34578;0.000;0.000;2023-11-19T01:20:26;4.63;;;2.77;;
48777;SDS011;34578;0.000;0.000;2023-11-19T01:25:26;5.20;;;2.83;;
48777;SDS011;34578;0.000;0.000;2023-11-19T01:30:27;5.13;;;2.50;;
48777;SDS011;34578;0.000;0.000;2023-11-19T01:35:27;9.77;;;4.50;;
48777;SDS011;34578;0.000;0.000;2023-11-19T01:40:27;7.77;;;3.30;;
48777;SDS011;34578;0.000;0.000;2023-11-19T01:45:28;5.83;;;2.80;;
48777;SDS011;34578;0.000;0.000;2023-11-19T01:50:33;6.72;;;2.38;;
48777;SDS011;34578;0.000;0.000;2023-11-19T01:55:34;5.88;;;2.67;;
48777;SDS011;34578;0.000;0.000;2023-11-19T02:00:35;5.50;;;2.83;;
48777;SDS011;34578;0.000;0.000;2023-11-19T02:05:36;6.90;;;3.08;;
48777;SDS011;34578;0.000;0.000;2023-11-19T02:10:38;6.70;;;2.97;;
48777;SDS011;34578;0.000;0.000;2023-11-19T02:15:40;6.10;;;3.27;;
48777;SDS011;34578;0.000;0.000;2023-11-19T02:20:41;6.95;;;3.10;;
48777;SDS011;34578;0.000;0.000;2023-11-19T02:25:41;6.23;;;2.73;;
48777;SDS011;34578;0.000;0.000;2023-11-19T02:30:43;4.25;;;2.45;;
48777;SDS011;34578;0.000;0.000;2023-11-19T02:35:43;7.13;;;3.07;;
48777;SDS011;34578;0.000;0.000;2023-11-19T02:40:44;6.78;;;2.50;;
48777;SDS011;34578;0.000;0.000;2023-11-19T02:45:44;4.93;;;2.40;;
48777;SDS011;34578;0.000;0.000;2023-11-19T02:50:45;3.45;;;2.25;;
48777;SDS011;34578;0.000;0.000;2023-11-19T02:55:47;5.80;;;2.63;;
48777;SDS011;34578;0.000;0.000;2023-11-19T03:00:50;4.07;;;2.38;;
48777;SDS011;34578;0.000;0.000;2023-11-19T03:06:00;6.35;;;2.25;;
48777;SDS011;34578;0.000;0.000;2023-11-19T03:11:04;3.33;;;2.00;;
48777;SDS011;34578;0.000;0.000;2023-11-19T03:16:05;4.70;;;2.37;;
48777;SDS011;34578;0.000;0.000;2023-11-19T03:21:06;3.63;;;2.20;;
48777;SDS011;34578;0.000;0.000;2023-11-19T03:26:08;4.20;;;2.03;;
48777;SDS011;34578;0.000;0.000;2023-11-19T03:31:11;6.25;;;2.58;;
48777;SDS011;34578;0.000;0.000;2023-11-19T03:36:12;5.10;;;2.43;;
48777;SDS011;34578;0.000;0.000;2023-11-19T03:41:13;3.42;;;2.50;;
48777;SDS011;34578;0.000;0.000;2023-11-19T03:51:18;4.70;;;2.25;;
48777;SDS011;34578;0.000;0.000;2023-11-19T03:56:18;5.40;;;2.70;;
48777;SDS011;34578;0.000;0.000;2023-11-19T04:01:19;3.80;;;2.00;;
48777;SDS011;34578;0.000;0.000;2023-11-19T04:06:19;5.00;;;1.80;;
48777;SDS011;34578;0.000;0.000;2023-11-19T04:11:20;3.63;;;2.13;;
48777;SDS011;34578;0.000;0.000;2023-11-19T04:16:25;3.67;;;1.80;;
48777;SDS011;34578;0.000;0.000;2023-11-19T04:21:28;4.88;;;2.00;;
48777;SDS011;34578;0.000;0.000;2023-11-19T04:26:28;3.77;;;2.87;;
48777;SDS011;34578;0.000;0.000;2023-11-19T04:31:32;3.33;;;1.73;;
48777;SDS011;34578;0.000;0.000;2023-11-19T04:36:32;4.87;;;2.00;;
48777;SDS011;34578;0.000;0.000;2023-11-19T04:41:33;4.97;;;1.83;;
48777;SDS011;34578;0.000;0.000;2023-11-19T04:46:33;5.87;;;1.80;;
48777;SDS011;34578;0.000;0.000;2023-11-19T04:51:37;2.30;;;1.63;;
48777;SDS011;34578;0.000;0.000;2023-11-19T04:56:38;3.53;;;2.33;;
48777;SDS011;34578;0.000;0.000;2023-11-19T05:01:39;3.03;;;1.65;;
48777;SDS011;34578;0.000;0.000;2023-11-19T05:06:40;5.20;;;1.58;;
48777;SDS011;34578;0.000;0.000;2023-11-19T05:11:40;2.38;;;1.60;;
48777;SDS011;34578;0.000;0.000;2023-11-19T05:16:41;2.73;;;1.90;;
48777;SDS011;34578;0.000;0.000;2023-11-19T05:21:42;4.22;;;2.13;;
48777;SDS011;34578;0.000;0.000;2023-11-19T05:26:43;5.50;;;2.47;;
48777;SDS011;34578;0.000;0.000;2023-11-19T05:31:44;2.47;;;1.55;;
48777;SDS011;34578;0.000;0.000;2023-11-19T05:36:45;3.37;;;1.77;;
48777;SDS011;34578;0.000;0.000;2023-11-19T05:41:45;5.15;;;1.52;;
48777;SDS011;34578;0.000;0.000;2023-11-19T05:46:46;2.97;;;1.50;;
48777;SDS011;34578;0.000;0.000;2023-11-19T05:51:46;3.37;;;1.77;;
48777;SDS011;34578;0.000;0.000;2023-11-19T05:56:49;2.77;;;1.60;;
48777;SDS011;34578;0.000;0.000;2023-11-19T06:01:50;1.90;;;1.70;;
48777;SDS011;34578;0.000;0.000;2023-11-19T06:06:50;4.67;;;1.93;;
48777;SDS011;34578;0.000;0.000;2023-11-19T06:11:51;1.90;;;1.43;;
48777;SDS011;34578;0.000;0.000;2023-11-19T06:16:52;3.25;;;1.52;;
48777;SDS011;34578;0.000;0.000;2023-11-19T06:21:52;3.57;;;1.87;;
48777;SDS011;34578;0.000;0.000;2023-11-19T06:26:53;2.90;;;1.30;;
48777;SDS011;34578;0.000;0.000;2023-11-19T06:31:53;3.80;;;1.50;;
48777;SDS011;34578;0.000;0.000;2023-11-19T06:36:54;3.30;;;1.50;;
48777;SDS011;34578;0.000;0.000;2023-11-19T06:41:54;2.13;;;1.50;;
48777;SDS011;34578;0.000;0.000;2023-11-19T06:46:54;3.40;;;1.63;;
48777;SDS011;34578;0.000;0.000;2023-11-19T06:51:55;3.37;;;1.40;;
48777;SDS011;34578;0.000;0.000;2023-11-19T06:56:55;4.10;;;2.20;;
48777;SDS011;34578;0.000;0.000;2023-11-19T07:01:56;5.35;;;3.75;;
48777;SDS011;34578;0.000;0.000;2023-11-19T07:06:57;5.97;;;3.70;;
48777;SDS011;34578;0.000;0.000;2023-11-19T07:11:57;4.03;;;3.13;;
48777;SDS011;34578;0.000;0.000;2023-11-19T07:16:59;3.63;;;3.33;;
48777;SDS011;34578;0.000;0.000;2023-11-19T07:22:00;5.63;;;3.20;;
48777;SDS011;34578;0.000;0.000;2023-11-19T07:27:00;5.63;;;3.67;;
48777;SDS011;34578;0.000;0.000;2023-11-19T07:32:04;8.48;;;4.63;;
48777;SDS011;34578;0.000;0.000;2023-11-19T07:37:05;15.13;;;4.65;;
48777;SDS011;34578;0.000;0.000;2023-11-19T07:42:05;6.40;;;4.00;;
48777;SDS011;34578;0.000;0.000;2023-11-19T07:47:06;5.45;;;4.30;;
48777;SDS011;34578;0.000;0.000;2023-11-19T07:52:06;8.70;;;4.43;;
48777;SDS011;34578;0.000;0.000;2023-11-19T07:57:07;12.10;;;5.03;;
48777;SDS011;34578;0.000;0.000;2023-11-19T08:02:07;4.90;;;4.40;;
48777;SDS011;34578;0.000;0.000;2023-11-19T08:07:09;6.07;;;4.05;;
48777;SDS011;34578;0.000;0.000;2023-11-19T08:12:09;6.37;;;4.10;;
48777;SDS011;34578;0.000;0.000;2023-11-19T08:17:09;8.47;;;3.93;;
48777;SDS011;34578;0.000;0.000;2023-11-19T08:22:10;9.00;;;4.65;;
48777;SDS011;34578;0.000;0.000;2023-11-19T08:27:10;8.20;;;4.00;;
48777;SDS011;34578;0.000;0.000;2023-11-19T08:32:11;5.40;;;4.90;;
48777;SDS011;34578;0.000;0.000;2023-11-19T08:37:11;5.60;;;4.73;;
48777;SDS011;34578;0.000;0.000;2023-11-19T08:42:12;7.00;;;4.50;;
48777;SDS011;34578;0.000;0.000;2023-11-19T08:47:12;8.52;;;4.32;;
48777;SDS011;34578;0.000;0.000;2023-11-19T08:52:13;7.28;;;4.03;;
48777;SDS011;34578;0.000;0.000;2023-11-19T08:57:13;8.53;;;4.30;;
48777;SDS011;34578;0.000;0.000;2023-11-19T09:02:13;6.27;;;3.93;;
48777;SDS011;34578;0.000;0.000;2023-11-19T09:07:14;4.97;;;4.00;;
48777;SDS011;34578;0.000;0.000;2023-11-19T09:12:14;5.82;;;4.03;;
48777;SDS011;34578;0.000;0.000;2023-11-19T09:17:15;12.17;;;4.63;;
48777;SDS011;34578;0.000;0.000;2023-11-19T09:22:15;7.70;;;3.65;;
48777;SDS011;34578;0.000;0.000;2023-11-19T09:27:16;7.47;;;3.90;;
48777;SDS011;34578;0.000;0.000;2023-11-19T09:32:16;7.87;;;4.43;;
48777;SDS011;34578;0.000;0.000;2023-11-19T09:37:17;6.27;;;3.87;;
48777;SDS011;34578;0.000;0.000;2023-11-19T09:42:17;6.73;;;4.07;;
48777;SDS011;34578;0.000;0.000;2023-11-19T09:47:18;6.60;;;3.63;;
48777;SDS011;34578;0.000;0.000;2023-11-19T09:52:20;13.52;;;4.20;;
48777;SDS011;34578;0.000;0.000;2023-11-19T09:57:20;9.27;;;3.07;;
48777;SDS011;34578;0.000;0.000;2023-11-19T10:02:21;8.75;;;3.70;;
48777;SDS011;34578;0.000;0.000;2023-11-19T10:07:22;7.07;;;2.60;;
48777;SDS011;34578;0.000;0.000;2023-11-19T10:12:22;11.93;;;3.43;;
48777;SDS011;34578;0.000;0.000;2023-11-19T10:17:26;7.50;;;4.23;;
48777;SDS011;34578;0.000;0.000;2023-11-19T10:22:39;6.15;;;2.97;;
48777;SDS011;34578;0.000;0.000;2023-11-19T10:27:39;6.68;;;4.13;;
48777;SDS011;34578;0.000;0.000;2023-11-19T10:32:40;8.93;;;3.23;;
48777;SDS011;34578;0.000;0.000;2023-11-19T10:37:40;5.17;;;2.73;;
48777;SDS011;34578;0.000;0.000;2023-11-19T10:42:41;7.85;;;3.03;;
48777;SDS011;34578;0.000;0.000;2023-11-19T10:47:41;4.80;;;2.75;;
48777;SDS011;34578;0.000;0.000;2023-11-19T10:52:43;6.72;;;2.88;;
48777;SDS011;34578;0.000;0.000;2023-11-19T10:57:46;5.32;;;2.67;;
48777;SDS011;34578;0.000;0.000;2023-11-19T11:02:50;4.38;;;2.03;;
48777;SDS011;34578;0.000;0.000;2023-11-19T11:07:55;7.17;;;2.63;;
48777;SDS011;34578;0.000;0.000;2023-11-19T11:12:57;4.53;;;2.10;;
48777;SDS011;34578;0.000;0.000;2023-11-19T11:18:01;9.63;;;2.58;;
48777;SDS011;34578;0.000;0.000;2023-11-19T11:28:44;5.88;;;2.25;;
48777;SDS011;34578;0.000;0.000;2023-11-19T11:39:10;5.57;;;2.58;;
48777;SDS011;34578;0.000;0.000;2023-11-19T11:44:11;4.43;;;2.70;;
48777;SDS011;34578;0.000;0.000;2023-11-19T11:49:11;8.05;;;2.63;;
48777;SDS011;34578;0.000;0.000;2023-11-19T11:59:19;4.00;;;2.35;;
48777;SDS011;34578;0.000;0.000;2023-11-19T12:04:19;6.72;;;2.65;;
48777;SDS011;34578;0.000;0.000;2023-11-19T12:09:20;6.03;;;2.37;;
48777;SDS011;34578;0.000;0.000;2023-11-19T12:14:47;5.47;;;2.17;;
48777;SDS011;34578;0.000;0.000;2023-11-19T12:20:01;4.32;;;2.25;;
48777;SDS011;34578;0.000;0.000;2023-11-19T12:25:04;3.70;;;2.30;;
48777;SDS011;34578;0.000;0.000;2023-11-19T12:30:06;4.15;;;2.10;;
48777;SDS011;34578;0.000;0.000;2023-11-19T12:35:10;7.40;;;3.83;;
48777;SDS011;34578;0.000;0.000;2023-11-19T12:45:13;3.88;;;2.17;;
48777;SDS011;34578;0.000;0.000;2023-11-19T12:50:14;3.53;;;2.33;;
48777;SDS011;34578;0.000;0.000;2023-11-19T12:55:24;3.30;;;1.88;;
48777;SDS011;34578;0.000;0.000;2023-11-19T13:00:27;10.63;;;2.38;;
48777;SDS011;34578;0.000;0.000;2023-11-19T13:05:31;4.03;;;2.45;;
48777;SDS011;34578;0.000;0.000;2023-11-19T13:10:54;5.10;;;2.03;;
48777;SDS011;34578;0.000;0.000;2023-11-19T13:16:01;6.22;;;2.63;;
48777;SDS011;34578;0.000;0.000;2023-11-19T13:21:03;7.43;;;2.35;;
48777;SDS011;34578;0.000;0.000;2023-11-19T13:26:04;5.20;;;2.33;;
48777;SDS011;34578;0.000;0.000;2023-11-19T13:31:05;4.20;;;2.10;;
48777;SDS011;34578;0.000;0.000;2023-11-19T13:36:06;2.42;;;2.10;;
48777;SDS011;34578;0.000;0.000;2023-11-19T13:41:07;6.07;;;2.33;;
48777;SDS011;34578;0.000;0.000;2023-11-19T13:46:11;2.70;;;1.92;;
48777;SDS011;34578;0.000;0.000;2023-11-19T13:51:12;6.37;;;2.10;;
48777;SDS011;34578;0.000;0.000;2023-11-19T13:56:12;5.70;;;2.35;;
48777;SDS011;34578;0.000;0.000;2023-11-19T14:01:12;2.20;;;1.83;;
48777;SDS011;34578;0.000;0.000;2023-11-19T14:09:17;3.47;;;2.22;;
48777;SDS011;34578;0.000;0.000;2023-11-19T14:14:18;5.00;;;2.10;;
48777;SDS011;34578;0.000;0.000;2023-11-19T14:19:18;4.03;;;2.13;;
48777;SDS011;34578;0.000;0.000;2023-11-19T14:24:18;2.23;;;1.87;;
48777;SDS011;34578;0.000;0.000;2023-11-19T14:29:19;3.13;;;1.60;;
48777;SDS011;34578;0.000;0.000;2023-11-19T14:34:19;4.77;;;1.93;;
48777;SDS011;34578;0.000;0.000;2023-11-19T14:39:20;4.40;;;2.08;;
48777;SDS011;34578;0.000;0.000;2023-11-19T14:44:20;7.07;;;2.13;;
48777;SDS011;34578;0.000;0.000;2023-11-19T14:49:21;11.27;;;2.17;;
48777;SDS011;34578;0.000;0.000;2023-11-19T14:54:21;3.77;;;1.97;;
48777;SDS011;34578;0.000;0.000;2023-11-19T14:59:22;5.07;;;2.60;;
48777;SDS011;34578;0.000;0.000;2023-11-19T15:04:22;3.93;;;2.37;;
48777;SDS011;34578;0.000;0.000;2023-11-19T15:09:22;9.63;;;2.17;;
48777;SDS011;34578;0.000;0.000;2023-11-19T15:14:23;7.57;;;1.80;;
48777;SDS011;34578;0.000;0.000;2023-11-19T15:19:23;36.17;;;3.17;;
48777;SDS011;34578;0.000;0.000;2023-11-19T15:24:23;16.93;;;3.53;;
48777;SDS011;34578;0.000;0.000;2023-11-19T15:29:25;32.28;;;3.03;;
48777;SDS011;34578;0.000;0.000;2023-11-19T15:34:25;12.27;;;2.77;;
48777;SDS011;34578;0.000;0.000;2023-11-19T15:39:26;18.33;;;2.13;;
48777;SDS011;34578;0.000;0.000;2023-11-19T15:44:27;11.40;;;2.47;;
48777;SDS011;34578;0.000;0.000;2023-11-19T15:49:29;8.68;;;2.55;;
48777;SDS011;34578;0.000;0.000;2023-11-19T15:54:29;11.30;;;1.73;;
48777;SDS011;34578;0.000;0.000;2023-11-19T15:59:29;10.83;;;2.00;;
48777;SDS011;34578;0.000;0.000;2023-11-19T16:04:31;12.25;;;2.13;;
48777;SDS011;34578;0.000;0.000;2023-11-19T16:09:31;9.93;;;1.73;;
48777;SDS011;34578;0.000;0.000;2023-11-19T16:14:32;11.25;;;1.98;;
48777;SDS011;34578;0.000;0.000;2023-11-19T16:19:33;5.73;;;2.10;;
48777;SDS011;34578;0.000;0.000;2023-11-19T16:24:35;7.43;;;1.85;;
48777;SDS011;34578;0.000;0.000;2023-11-19T16:29:39;4.40;;;1.85;;
48777;SDS011;34578;0.000;0.000;2023-11-19T16:34:39;7.30;;;1.77;;
48777;SDS011;34578;0.000;0.000;2023-11-19T16:39:42;7.97;;;2.10;;
48777;SDS011;34578;0.000;0.000;2023-11-19T16:44:43;6.22;;;1.77;;
48777;SDS011;34578;0.000;0.000;2023-11-19T16:49:44;7.85;;;2.80;;
48777;SDS011;34578;0.000;0.000;2023-11-19T16:54:45;10.13;;;3.58;;
48777;SDS011;34578;0.000;0.000;2023-11-19T16:59:45;5.63;;;2.57;;
48777;SDS011;34578;0.000;0.000;2023-11-19T17:04:48;10.23;;;2.83;;
48777;SDS011;34578;0.000;0.000;2023-11-19T17:09:48;11.50;;;2.92;;
48777;SDS011;34578;0.000;0.000;2023-11-19T17:14:49;3.07;;;2.30;;
48777;SDS011;34578;0.000;0.000;2023-11-19T17:19:52;5.95;;;2.55;;
48777;SDS011;34578;0.000;0.000;2023-11-19T17:24:53;4.80;;;2.30;;
48777;SDS011;34578;0.000;0.000;2023-11-19T17:29:57;7.28;;;2.03;;
48777;SDS011;34578;0.000;0.000;2023-11-19T17:34:58;4.18;;;2.08;;
48777;SDS011;34578;0.000;0.000;2023-11-19T17:39:59;5.07;;;1.83;;
48777;SDS011;34578;0.000;0.000;2023-11-19T17:44:59;4.07;;;1.70;;
48777;SDS011;34578;0.000;0.000;2023-11-19T17:50:00;7.85;;;2.30;;
48777;SDS011;34578;0.000;0.000;2023-11-19T17:55:03;5.22;;;1.60;;
48777;SDS011;34578;0.000;0.000;2023-11-19T18:00:05;6.80;;;2.25;;
48777;SDS011;34578;0.000;0.000;2023-11-19T18:05:12;2.85;;;1.80;;
48777;SDS011;34578;0.000;0.000;2023-11-19T18:10:12;6.63;;;1.57;;
48777;SDS011;34578;0.000;0.000;2023-11-19T18:15:13;8.27;;;2.22;;
48777;SDS011;34578;0.000;0.000;2023-11-19T18:20:13;4.70;;;1.92;;
48777;SDS011;34578;0.000;0.000;2023-11-19T18:25:14;7.22;;;1.98;;
48777;SDS011;34578;0.000;0.000;2023-11-19T18:30:17;4.18;;;2.00;;
48777;SDS011;34578;0.000;0.000;2023-11-19T18:35:17;6.20;;;1.70;;
48777;SDS011;34578;0.000;0.000;2023-11-19T18:40:23;5.18;;;1.98;;
48777;SDS011;34578;0.000;0.000;2023-11-19T18:45:24;4.25;;;1.90;;
48777;SDS011;34578;0.000;0.000;2023-11-19T18:50:25;3.55;;;1.40;;
48777;SDS011;34578;0.000;0.000;2023-11-19T18:55:26;8.93;;;2.23;;
48777;SDS011;34578;0.000;0.000;2023-11-19T19:00:27;4.28;;;1.60;;
48777;SDS011;34578;0.000;0.000;2023-11-19T19:05:28;3.90;;;1.80;;
48777;SDS011;34578;0.000;0.000;2023-11-19T19:10:28;6.40;;;2.10;;
48777;SDS011;34578;0.000;0.000;2023-11-19T19:15:29;4.50;;;1.65;;
48777;SDS011;34578;0.000;0.000;2023-11-19T19:20:29;8.93;;;2.63;;
48777;SDS011;34578;0.000;0.000;2023-11-19T19:25:29;8.70;;;1.93;;
48777;SDS011;34578;0.000;0.000;2023-11-19T19:30:30;16.33;;;4.03;;
48777;SDS011;34578;0.000;0.000;2023-11-19T19:35:30;11.13;;;2.67;;
48777;SDS011;34578;0.000;0.000;2023-11-19T19:40:31;8.95;;;2.40;;
48777;SDS011;34578;0.000;0.000;2023-11-19T19:45:31;9.43;;;2.47;;
48777;SDS011;34578;0.000;0.000;2023-11-19T19:50:32;8.48;;;2.80;;
48777;SDS011;34578;0.000;0.000;2023-11-19T19:55:32;7.90;;;2.00;;
48777;SDS011;34578;0.000;0.000;2023-11-19T20:00:33;6.77;;;2.40;;
48777;SDS011;34578;0.000;0.000;2023-11-19T20:05:33;9.93;;;2.47;;
48777;SDS011;34578;0.000;0.000;2023-11-19T20:10:33;10.03;;;2.00;;
48777;SDS011;34578;0.000;0.000;2023-11-19T20:15:35;7.95;;;1.92;;
48777;SDS011;34578;0.000;0.000;2023-11-19T20:20:36;6.50;;;2.80;;
48777;SDS011;34578;0.000;0.000;2023-11-19T20:25:38;7.50;;;2.22;;
48777;SDS011;34578;0.000;0.000;2023-11-19T20:30:39;5.88;;;1.58;;
48777;SDS011;34578;0.000;0.000;2023-11-19T20:35:40;1.83;;;1.42;;
48777;SDS011;34578;0.000;0.000;2023-11-19T20:40:40;5.35;;;2.28;;
48777;SDS011;34578;0.000;0.000;2023-11-19T20:45:41;7.05;;;2.10;;
48777;SDS011;34578;0.000;0.000;2023-11-19T20:50:42;6.20;;;2.17;;
48777;SDS011;34578;0.000;0.000;2023-11-19T20:55:43;4.77;;;1.57;;
48777;SDS011;34578;0.000;0.000;2023-11-19T21:00:45;4.95;;;2.67;;
48777;SDS011;34578;0.000;0.000;2023-11-19T21:05:46;3.92;;;2.30;;
48777;SDS011;34578;0.000;0.000;2023-11-19T21:10:54;4.40;;;1.60;;
48777;SDS011;34578;0.000;0.000;2023-11-19T21:15:54;5.38;;;1.85;;
48777;SDS011;34578;0.000;0.000;2023-11-19T21:20:55;3.00;;;1.27;;
48777;SDS011;34578;0.000;0.000;2023-11-19T21:25:58;5.30;;;1.70;;
48777;SDS011;34578;0.000;0.000;2023-11-19T21:31:00;4.55;;;1.48;;
48777;SDS011;34578;0.000;0.000;2023-11-19T21:36:00;3.07;;;1.40;;
48777;SDS011;34578;0.000;0.000;2023-11-19T21:41:00;3.50;;;1.38;;
48777;SDS011;34578;0.000;0.000;2023-11-19T21:46:01;3.08;;;1.38;;
48777;SDS011;34578;0.000;0.000;2023-11-19T21:51:03;3.70;;;1.33;;
48777;SDS011;34578;0.000;0.000;2023-11-19T21:56:04;2.50;;;1.27;;
48777;SDS011;34578;0.000;0.000;2023-11-19T22:01:05;3.78;;;1.55;;
48777;SDS011;34578;0.000;0.000;2023-11-19T22:06:05;3.88;;;1.58;;
48777;SDS011;34578;0.000;0.000;2023-11-19T22:11:06;2.25;;;1.35;;
48777;SDS011;34578;0.000;0.000;2023-11-19T22:16:06;3.40;;;1.57;;
48777;SDS011;34578;0.000;0.000;2023-11-19T22:21:09;7.60;;;1.10;;
48777;SDS011;34578;0.000;0.000;2023-11-19T22:26:10;3.87;;;1.40;;
48777;SDS011;34578;0.000;0.000;2023-11-19T22:31:10;2.10;;;1.20;;
48777;SDS011;34578;0.000;0.000;2023-11-19T22:36:12;2.03;;;0.98;;
48777;SDS011;34578;0.000;0.000;2023-11-19T22:41:12;1.60;;;1.10;;
48777;SDS011;34578;0.000;0.000;2023-11-19T22:46:13;2.87;;;1.40;;
48777;SDS011;34578;0.000;0.000;2023-11-19T22:51:13;3.47;;;1.43;;
48777;SDS011;34578;0.000;0.000;2023-11-19T22:56:14;2.08;;;1.10;;
48777;SDS011;34578;0.000;0.000;2023-11-19T23:01:19;3.03;;;1.45;;
48777;SDS011;34578;0.000;0.000;2023-11-19T23:06:19;1.60;;;1.20;;
48777;SDS011;34578;0.000;0.000;2023-11-19T23:11:20;3.93;;;1.30;;
48777;SDS011;34578;0.000;0.000;2023-11-19T23:16:20;2.07;;;1.20;;
48777;SDS011;34578;0.000;0.000;2023-11-19T23:21:23;4.18;;;1.65;;
48777;SDS011;34578;0.000;0.000;2023-11-19T23:26:23;4.17;;;1.60;;
48777;SDS011;34578;0.000;0.000;2023-11-19T23:31:23;2.27;;;1.00;;
48777;SDS011;34578;0.000;0.000;2023-11-19T23:36:24;2.63;;;1.27;;
48777;SDS011;34578;0.000;0.000;2023-11-19T23:41:24;7.23;;;1.87;;
48777;SDS011;34578;0.000;0.000;2023-11-19T23:46:25;3.17;;;1.65;;
48777;SDS011;34578;0.000;0.000;2023-11-19T23:51:26;3.55;;;1.58;;
48777;SDS011;34578;0.000;0.000;2023-11-19T23:56:29;3.15;;;1.50;;
